Time;durP1;ratioP1;P1;durP2;ratioP2;P2;SDS_P1;SDS_P2;PMS_P1;PMS_P2;Temp;Humidity;BMP_temperature;BMP_pressure;BME280_temperature;BME280_humidity;BME280_pressure;Samples;Min_cycle;Max_cycle;Signal;HPM_P1;HPM_P2
2023/06/07 00:01:08;;;;;;;9.75;5.90;;;;;;;12.09;100.00;101188.22;5026181;28;20376;-86
2023/06/07 00:03:36;;;;;;;6.93;5.70;;;;;;;12.17;100.00;101201.59;4980546;28;20033;-85
2023/06/07 00:06:03;;;;;;;9.95;6.07;;;;;;;12.11;100.00;101200.34;5027010;28;20041;-85
2023/06/07 00:08:29;;;;;;;7.65;5.68;;;;;;;12.10;100.00;101193.38;4990424;28;20478;-86
2023/06/07 00:10:56;;;;;;;13.27;5.90;;;;;;;12.13;100.00;101197.56;5026169;28;20040;-86
2023/06/07 00:13:22;;;;;;;10.10;5.82;;;;;;;12.22;100.00;101199.41;5005135;28;20037;-85
2023/06/07 00:15:48;;;;;;;9.43;5.90;;;;;;;12.26;100.00;101194.66;4994160;28;20029;-86
2023/06/07 00:18:15;;;;;;;9.10;5.05;;;;;;;12.33;100.00;101203.72;5026352;28;20034;-85
2023/06/07 00:20:46;;;;;;;6.13;4.85;;;;;;;12.42;100.00;101210.03;5003989;28;20242;-85
2023/06/07 00:23:15;;;;;;;8.25;6.18;;;;;;;12.48;100.00;101213.94;4994670;28;20071;-86
2023/06/07 00:25:42;;;;;;;9.90;5.60;;;;;;;12.49;100.00;101213.81;5029006;28;20064;-86
2023/06/07 00:28:08;;;;;;;9.18;5.72;;;;;;;12.55;100.00;101216.91;5015711;28;20057;-85
2023/06/07 00:30:34;;;;;;;6.88;5.53;;;;;;;12.58;100.00;101203.34;4995073;28;20033;-81
2023/06/07 00:33:00;;;;;;;6.85;5.60;;;;;;;12.51;100.00;101208.38;5009369;28;20045;-81
2023/06/07 00:35:25;;;;;;;8.00;6.07;;;;;;;12.39;100.00;101210.31;5011347;28;20040;-81
2023/06/07 00:37:51;;;;;;;8.73;6.05;;;;;;;12.20;100.00;101209.28;4998540;28;20616;-81
2023/06/07 00:40:17;;;;;;;7.75;5.45;;;;;;;12.09;100.00;101202.28;4994517;28;20519;-86
2023/06/07 00:42:43;;;;;;;6.72;5.68;;;;;;;12.06;100.00;101204.34;5045254;28;20041;-86
2023/06/07 00:45:09;;;;;;;8.70;5.43;;;;;;;12.12;100.00;101209.97;5029257;28;20025;-86
2023/06/07 00:47:37;;;;;;;10.25;6.13;;;;;;;12.17;100.00;101211.41;4997689;28;20091;-86
2023/06/07 00:50:03;;;;;;;8.90;5.82;;;;;;;12.12;100.00;101211.81;4996413;28;20475;-86
2023/06/07 00:52:31;;;;;;;13.35;7.32;;;;;;;12.10;100.00;101205.78;5031510;28;20025;-86
2023/06/07 00:55:02;;;;;;;14.73;6.05;;;;;;;12.02;100.00;101199.31;5022407;28;20029;-85
2023/06/07 00:57:32;;;;;;;11.38;5.90;;;;;;;12.02;100.00;101209.91;4996356;28;20029;-86
2023/06/07 01:00:01;;;;;;;10.98;5.32;;;;;;;12.06;100.00;101199.03;5021096;28;20032;-86
2023/06/07 01:02:29;;;;;;;15.20;6.60;;;;;;;12.04;100.00;101194.72;5002375;28;20036;-86
2023/06/07 01:04:57;;;;;;;13.63;6.47;;;;;;;12.07;100.00;101195.44;4985154;28;20060;-86
2023/06/07 01:07:24;;;;;;;9.10;5.82;;;;;;;12.06;100.00;101194.59;5046060;28;20437;-87
2023/06/07 01:09:54;;;;;;;7.18;6.47;;;;;;;12.12;100.00;101201.19;4997021;28;20051;-85
2023/06/07 01:12:20;;;;;;;10.32;6.40;;;;;;;12.00;100.00;101195.97;4997544;28;20049;-86
2023/06/07 01:14:48;;;;;;;9.20;6.53;;;;;;;11.91;100.00;101191.50;5005485;28;20128;-85
2023/06/07 01:17:16;;;;;;;14.40;7.38;;;;;;;11.85;100.00;101192.84;5013393;28;20030;-86
2023/06/07 01:19:45;;;;;;;8.60;5.85;;;;;;;11.86;100.00;101194.53;5007164;28;20049;-86
2023/06/07 01:22:11;;;;;;;7.00;5.35;;;;;;;11.86;100.00;101205.13;4996793;28;20036;-85
2023/06/07 01:24:39;;;;;;;8.48;6.03;;;;;;;11.87;100.00;101196.22;4977968;28;20293;-85
2023/06/07 01:27:10;;;;;;;7.88;6.30;;;;;;;11.91;100.00;101199.44;4981612;28;20487;-85
2023/06/07 01:29:36;;;;;;;7.47;5.63;;;;;;;11.90;100.00;101198.59;5010229;28;20140;-86
2023/06/07 01:32:05;;;;;;;11.18;6.63;;;;;;;11.83;100.00;101204.56;4961659;28;20958;-86
2023/06/07 01:34:34;;;;;;;13.43;7.40;;;;;;;11.63;100.00;101207.13;5015769;28;20092;-86
2023/06/07 01:37:01;;;;;;;7.68;6.40;;;;;;;11.47;100.00;101204.94;4993211;28;20063;-86
2023/06/07 01:39:30;;;;;;;14.57;7.40;;;;;;;11.33;100.00;101208.78;4994987;28;20029;-86
2023/06/07 01:41:58;;;;;;;14.38;6.80;;;;;;;11.25;100.00;101215.56;4996248;28;20044;-85
2023/06/07 01:44:25;;;;;;;8.23;5.93;;;;;;;11.22;100.00;101205.25;5008240;28;20037;-86
2023/06/07 01:46:51;;;;;;;14.15;6.72;;;;;;;11.20;100.00;101206.31;4980663;28;20038;-86
2023/06/07 01:49:19;;;;;;;8.38;6.68;;;;;;;11.19;100.00;101202.00;4994827;28;20373;-85
2023/06/07 01:51:45;;;;;;;8.57;6.50;;;;;;;11.11;100.00;101194.72;5027726;28;20038;-86
2023/06/07 01:54:14;;;;;;;7.95;6.57;;;;;;;11.08;100.00;101185.25;5002974;28;20033;-86
2023/06/07 01:57:00;;;;;;;7.65;6.35;;;;;;;11.12;100.00;101191.94;5018547;28;20033;-86
2023/06/07 01:59:45;;;;;;;8.15;6.28;;;;;;;11.11;100.00;101190.28;5010134;28;20124;-86
2023/06/07 02:02:17;;;;;;;8.73;6.30;;;;;;;11.03;100.00;101184.78;4985969;28;20037;-86
2023/06/07 02:04:46;;;;;;;13.73;6.95;;;;;;;11.06;100.00;101187.16;4961424;28;20041;-86
2023/06/07 02:07:22;;;;;;;10.25;6.30;;;;;;;11.02;100.00;101183.94;5000328;28;20041;-86
2023/06/07 02:09:50;;;;;;;8.55;5.88;;;;;;;10.98;100.00;101182.53;4987160;28;20072;-86
2023/06/07 02:12:17;;;;;;;7.68;6.60;;;;;;;10.98;100.00;101177.22;4994719;28;20589;-86
2023/06/07 02:14:45;;;;;;;8.88;6.22;;;;;;;11.03;100.00;101177.69;4993906;28;20496;-86
2023/06/07 02:17:12;;;;;;;9.35;7.22;;;;;;;11.07;100.00;101172.97;5005232;28;20057;-85
2023/06/07 02:19:38;;;;;;;10.93;7.18;;;;;;;11.13;100.00;101168.97;4972370;28;20107;-85
2023/06/07 02:22:05;;;;;;;6.80;6.03;;;;;;;11.19;100.00;101168.44;5029551;28;20030;-85
2023/06/07 02:24:33;;;;;;;10.40;7.05;;;;;;;11.22;100.00;101170.84;5018204;28;20463;-81
2023/06/07 02:27:00;;;;;;;10.27;7.05;;;;;;;11.25;100.00;101157.34;4930936;28;20041;-80
2023/06/07 02:29:25;;;;;;;8.52;6.57;;;;;;;11.27;100.00;101162.50;5018809;28;20045;-85
2023/06/07 02:31:54;;;;;;;9.73;7.07;;;;;;;11.27;100.00;101163.34;4984255;28;20055;-86
2023/06/07 02:34:21;;;;;;;10.80;7.45;;;;;;;11.28;100.00;101167.66;5002345;28;20060;-85
2023/06/07 02:36:47;;;;;;;9.75;7.57;;;;;;;11.24;100.00;101163.63;4998775;28;20037;-86
2023/06/07 02:39:14;;;;;;;11.50;7.80;;;;;;;11.20;100.00;101171.91;4996387;28;20033;-85
2023/06/07 02:41:42;;;;;;;13.45;8.43;;;;;;;11.14;100.00;101171.50;5003053;28;20069;-86
2023/06/07 02:44:10;;;;;;;12.68;7.75;;;;;;;11.08;100.00;101168.53;5016355;28;20037;-85
2023/06/07 02:46:35;;;;;;;10.38;8.13;;;;;;;10.90;100.00;101177.03;4996932;28;20442;-85
2023/06/07 02:49:01;;;;;;;13.70;8.18;;;;;;;10.81;100.00;101176.00;5006910;28;20037;-85
2023/06/07 02:51:29;;;;;;;11.77;8.55;;;;;;;10.76;100.00;101175.53;5000859;28;20088;-85
2023/06/07 02:53:56;;;;;;;11.80;7.95;;;;;;;10.69;100.00;101177.03;4997931;28;20147;-85
2023/06/07 02:56:25;;;;;;;10.88;7.82;;;;;;;10.70;100.00;101179.53;5013438;28;20143;-85
2023/06/07 02:58:51;;;;;;;9.82;7.80;;;;;;;10.67;100.00;101175.31;5000797;28;20402;-86
2023/06/07 03:01:19;;;;;;;9.15;7.10;;;;;;;10.75;100.00;101179.97;4995914;28;20513;-86
2023/06/07 03:03:49;;;;;;;13.30;8.00;;;;;;;10.79;100.00;101172.63;4989300;28;20033;-85
2023/06/07 03:06:15;;;;;;;9.13;7.72;;;;;;;10.83;100.00;101173.22;5004256;28;20520;-86
2023/06/07 03:08:42;;;;;;;11.60;8.10;;;;;;;10.76;100.00;101168.47;4991785;28;20545;-85
2023/06/07 03:11:11;;;;;;;8.63;7.10;;;;;;;10.66;100.00;101167.53;5013953;28;20037;-86
2023/06/07 03:13:41;;;;;;;11.63;7.45;;;;;;;10.61;100.00;101162.63;4996050;28;20483;-85
2023/06/07 03:16:10;;;;;;;8.57;6.95;;;;;;;10.55;100.00;101176.34;5014473;28;20037;-86
2023/06/07 03:18:46;;;;;;;9.45;7.35;;;;;;;10.45;100.00;101173.56;5012043;28;20053;-86
2023/06/07 03:21:12;;;;;;;11.07;6.50;;;;;;;10.42;100.00;101166.75;4995555;28;20049;-86
2023/06/07 03:23:39;;;;;;;9.35;6.95;;;;;;;10.46;100.00;101163.84;5045088;28;20455;-86
2023/06/07 03:26:07;;;;;;;9.05;7.53;;;;;;;10.47;100.00;101161.13;5007662;28;20033;-86
2023/06/07 03:28:34;;;;;;;7.57;6.10;;;;;;;10.46;100.00;101164.75;5001573;28;20395;-86
2023/06/07 03:31:01;;;;;;;10.48;7.05;;;;;;;10.46;100.00;101159.44;4953360;28;20033;-86
2023/06/07 03:33:37;;;;;;;9.43;6.40;;;;;;;10.54;100.00;101148.25;4996343;28;20049;-86
2023/06/07 03:36:07;;;;;;;14.23;8.23;;;;;;;10.56;100.00;101161.34;5038429;28;20033;-85
2023/06/07 03:38:34;;;;;;;15.23;8.35;;;;;;;10.36;100.00;101151.41;5011050;28;20043;-86
2023/06/07 03:41:00;;;;;;;11.80;6.38;;;;;;;10.21;100.00;101147.38;5019999;28;20035;-86
2023/06/07 03:43:32;;;;;;;10.73;6.65;;;;;;;10.21;100.00;101147.38;4995840;28;20041;-86
2023/06/07 03:45:58;;;;;;;11.88;7.78;;;;;;;10.25;100.00;101152.28;5011996;28;20030;-85
2023/06/07 03:48:24;;;;;;;16.30;7.57;;;;;;;10.18;100.00;101145.78;5029613;28;20037;-86
2023/06/07 03:50:50;;;;;;;10.82;8.65;;;;;;;9.96;100.00;101150.16;5015469;28;20033;-86
2023/06/07 03:53:17;;;;;;;10.77;8.43;;;;;;;9.82;100.00;101145.16;5010594;28;20499;-86
2023/06/07 03:55:47;;;;;;;9.60;7.65;;;;;;;9.69;100.00;101140.84;5001137;28;20040;-86
2023/06/07 03:58:13;;;;;;;14.43;7.80;;;;;;;9.64;100.00;101143.84;5011803;28;20036;-86
2023/06/07 04:00:39;;;;;;;11.10;8.27;;;;;;;9.53;100.00;101142.06;5000340;28;20026;-85
2023/06/07 04:03:05;;;;;;;10.35;8.77;;;;;;;9.47;100.00;101142.53;5043171;28;20042;-86
2023/06/07 04:05:33;;;;;;;11.23;8.50;;;;;;;9.49;100.00;101145.06;5011423;28;20535;-86
2023/06/07 04:08:01;;;;;;;12.73;8.55;;;;;;;9.55;100.00;101147.22;4998342;28;20033;-86
2023/06/07 04:10:28;;;;;;;8.27;7.22;;;;;;;9.64;100.00;101143.84;5025465;28;20036;-85
2023/06/07 04:12:53;;;;;;;11.23;7.60;;;;;;;9.69;100.00;101135.56;5011190;28;20029;-86
2023/06/07 04:15:19;;;;;;;11.02;8.50;;;;;;;9.70;100.00;101139.88;5015726;28;20403;-86
2023/06/07 04:17:45;;;;;;;10.55;8.73;;;;;;;9.61;100.00;101135.31;4991550;28;20058;-85
2023/06/07 04:20:14;;;;;;;10.60;8.32;;;;;;;9.52;100.00;101134.25;5026418;28;20499;-86
2023/06/07 04:22:43;;;;;;;11.10;8.48;;;;;;;9.48;100.00;101146.00;4981974;28;20068;-86
2023/06/07 04:25:09;;;;;;;16.15;8.90;;;;;;;9.36;100.00;101138.09;4994313;28;20029;-86
2023/06/07 04:27:37;;;;;;;11.52;8.07;;;;;;;9.30;100.00;101139.41;5011140;28;20036;-86
2023/06/07 04:30:08;;;;;;;13.07;8.43;;;;;;;9.35;100.00;101139.03;5008264;28;20048;-86
2023/06/07 04:32:37;;;;;;;11.90;8.55;;;;;;;9.39;100.00;101142.28;5023866;28;20029;-87
2023/06/07 04:35:05;;;;;;;9.85;7.80;;;;;;;9.54;100.00;101140.25;5010782;28;20467;-85
2023/06/07 04:37:31;;;;;;;11.50;8.70;;;;;;;9.59;100.00;101139.91;4979961;28;20049;-86
2023/06/07 04:39:57;;;;;;;11.82;8.48;;;;;;;9.48;100.00;101133.66;5010710;28;20109;-86
2023/06/07 04:42:25;;;;;;;12.18;8.55;;;;;;;9.33;100.00;101134.84;4994377;28;20045;-86
2023/06/07 04:44:52;;;;;;;11.50;8.30;;;;;;;9.34;100.00;101141.78;5012284;28;20418;-85
2023/06/07 04:47:20;;;;;;;11.95;8.73;;;;;;;9.40;100.00;101133.41;5009373;28;20045;-85
2023/06/07 04:49:51;;;;;;;15.23;8.82;;;;;;;9.48;100.00;101136.28;5043928;28;20430;-86
2023/06/07 04:52:19;;;;;;;11.65;8.73;;;;;;;9.39;100.00;101124.66;5013685;28;20029;-86
2023/06/07 04:54:49;;;;;;;17.10;8.95;;;;;;;9.29;100.00;101127.19;4996532;28;20460;-86
2023/06/07 04:57:18;;;;;;;12.40;9.45;;;;;;;9.23;100.00;101135.56;5027163;28;20045;-86
2023/06/07 04:59:48;;;;;;;11.25;9.43;;;;;;;9.15;100.00;101130.88;4996676;28;20132;-86
2023/06/07 05:02:20;;;;;;;;;;;;;;;9.20;100.00;101132.31;5035056;28;20056;-85
2023/06/07 05:04:46;;;;;;;9.50;7.90;;;;;;;9.37;100.00;101141.56;5011347;28;20378;-86
2023/06/07 05:07:14;;;;;;;11.52;8.65;;;;;;;9.61;100.00;101135.31;5010954;28;20030;-86
2023/06/07 05:09:43;;;;;;;11.27;8.65;;;;;;;9.81;100.00;101139.00;5015415;28;20087;-86
2023/06/07 05:12:10;;;;;;;11.20;9.25;;;;;;;9.97;100.00;101135.19;5026749;28;20036;-87
2023/06/07 05:14:36;;;;;;;12.13;9.10;;;;;;;10.02;100.00;101132.97;5006785;28;20068;-85
2023/06/07 05:17:03;;;;;;;10.20;8.73;;;;;;;10.06;100.00;101137.06;5013056;28;20040;-86
2023/06/07 05:19:32;;;;;;;15.60;9.88;;;;;;;10.06;100.00;101137.06;5004570;28;20495;-86
2023/06/07 05:21:58;;;;;;;14.30;9.90;;;;;;;9.99;100.00;101136.72;5046809;28;20033;-85
2023/06/07 05:24:24;;;;;;;13.35;9.93;;;;;;;9.89;100.00;101133.16;5001539;28;20034;-86
2023/06/07 05:26:50;;;;;;;12.13;8.52;;;;;;;9.90;100.00;101132.19;5044761;28;20029;-85
2023/06/07 05:29:16;;;;;;;11.52;8.45;;;;;;;9.96;100.00;101131.69;5039424;28;20086;-85
2023/06/07 05:31:42;;;;;;;11.85;9.30;;;;;;;10.05;100.00;101136.22;5009995;28;20094;-86
2023/06/07 05:34:08;;;;;;;18.77;10.13;;;;;;;10.14;100.00;101133.81;4999657;28;20430;-86
2023/06/07 05:36:34;;;;;;;15.32;10.88;;;;;;;10.17;100.00;101139.69;5033269;28;20683;-86
2023/06/07 05:39:02;;;;;;;16.00;11.55;;;;;;;10.21;100.00;101132.34;5000176;28;20033;-85
2023/06/07 05:41:28;;;;;;;16.60;12.80;;;;;;;10.22;100.00;101133.19;4982874;28;20041;-85
2023/06/07 05:43:54;;;;;;;26.38;12.70;;;;;;;10.23;100.00;101130.41;5012420;28;20034;-86
2023/06/07 05:46:20;;;;;;;24.08;12.85;;;;;;;10.12;100.00;101126.00;5020306;28;20087;-86
2023/06/07 05:48:47;;;;;;;35.83;13.20;;;;;;;10.11;100.00;101137.56;5017607;28;20025;-86
2023/06/07 05:51:18;;;;;;;35.75;12.55;;;;;;;10.02;100.00;101132.97;5020243;28;20086;-86
2023/06/07 05:53:44;;;;;;;33.67;12.00;;;;;;;9.98;100.00;101134.19;5000112;28;20033;-86
2023/06/07 05:56:16;;;;;;;46.95;12.60;;;;;;;9.82;100.00;101131.94;5007179;28;20025;-85
2023/06/07 05:58:47;;;;;;;25.08;12.32;;;;;;;9.72;100.00;101135.31;5015742;28;20112;-86
2023/06/07 06:01:13;;;;;;;43.70;12.55;;;;;;;9.74;100.00;101137.84;5033160;28;20094;-86
2023/06/07 06:03:39;;;;;;;43.13;11.10;;;;;;;9.71;100.00;101131.00;5015562;28;20074;-86
2023/06/07 06:06:17;;;;;;;79.72;13.23;;;;;;;9.72;100.00;101127.41;4997239;28;20044;-86
2023/06/07 06:08:45;;;;;;;58.28;12.70;;;;;;;9.69;100.00;101130.28;4998816;28;20034;-85
2023/06/07 06:11:12;;;;;;;38.42;12.25;;;;;;;9.65;100.00;101134.97;4996981;28;20037;-86
2023/06/07 06:13:39;;;;;;;24.40;11.35;;;;;;;9.65;100.00;101140.25;5003088;28;20029;-86
2023/06/07 06:16:05;;;;;;;22.75;12.07;;;;;;;9.67;100.00;101146.25;5027379;28;20049;-86
2023/06/07 06:18:31;;;;;;;29.35;11.30;;;;;;;9.77;100.00;101133.16;5012205;28;20037;-85
2023/06/07 06:21:00;;;;;;;22.05;10.45;;;;;;;9.91;100.00;101144.41;5016443;28;20029;-86
2023/06/07 06:23:26;;;;;;;16.05;10.32;;;;;;;9.87;100.00;101141.19;5013119;28;20025;-86
2023/06/07 06:25:52;;;;;;;14.50;6.60;;;;;;;9.82;100.00;101140.72;4996724;28;20037;-87
2023/06/07 06:28:18;;;;;;;26.27;9.13;;;;;;;9.71;100.00;101138.94;5018623;28;20037;-86
2023/06/07 06:30:44;;;;;;;24.52;9.07;;;;;;;9.70;100.00;101131.94;5009844;28;20118;-86
2023/06/07 06:33:10;;;;;;;20.42;9.25;;;;;;;9.80;100.00;101145.28;5012871;28;20505;-85
2023/06/07 06:35:37;;;;;;;40.08;9.07;;;;;;;9.92;100.00;101149.56;4982508;28;20423;-86
2023/06/07 06:38:03;;;;;;;27.77;9.10;;;;;;;10.05;100.00;101156.50;5032594;28;20091;-86
2023/06/07 06:40:29;;;;;;;35.03;8.73;;;;;;;10.12;100.00;101146.28;5008794;28;20038;-86
2023/06/07 06:42:55;;;;;;;24.92;10.18;;;;;;;10.24;100.00;101152.41;5003477;28;20036;-85
2023/06/07 06:45:28;;;;;;;18.92;10.05;;;;;;;10.26;100.00;101150.44;5009878;28;20235;-85
2023/06/07 06:47:55;;;;;;;22.08;11.70;;;;;;;10.26;100.00;101150.44;5038424;28;20030;-85
2023/06/07 06:50:20;;;;;;;17.30;11.07;;;;;;;10.35;100.00;101162.09;5001655;28;20088;-85
2023/06/07 06:52:46;;;;;;;18.60;12.05;;;;;;;10.41;100.00;101165.09;5008637;28;20041;-85
2023/06/07 06:55:12;;;;;;;20.58;12.32;;;;;;;10.49;100.00;101169.78;5046067;28;20395;-81
2023/06/07 06:57:38;;;;;;;15.85;11.75;;;;;;;10.55;100.00;101168.41;5011815;28;20040;-80
2023/06/07 07:00:06;;;;;;;18.95;11.38;;;;;;;10.64;100.00;101178.22;4998356;28;20432;-87
2023/06/07 07:02:32;;;;;;;16.27;11.27;;;;;;;10.61;100.00;101175.84;5015335;28;20116;-87
2023/06/07 07:04:58;;;;;;;20.58;11.32;;;;;;;10.52;100.00;101184.53;5029158;28;20116;-86
2023/06/07 07:07:23;;;;;;;18.45;11.63;;;;;;;10.51;100.00;101185.50;4994436;28;20044;-86
2023/06/07 07:09:49;;;;;;;15.88;10.40;;;;;;;10.41;100.00;101180.09;5009639;28;20030;-85
2023/06/07 07:12:15;;;;;;;18.42;12.10;;;;;;;10.39;100.00;101184.66;5010321;28;20083;-85
2023/06/07 07:14:41;;;;;;;18.70;12.32;;;;;;;10.36;100.00;101188.41;5011696;28;20033;-85
2023/06/07 07:17:07;;;;;;;16.70;11.90;;;;;;;10.45;100.00;101186.78;5012145;28;20037;-85
2023/06/07 07:19:33;;;;;;;19.92;12.68;;;;;;;10.54;100.00;101183.44;5029344;28;20562;-83
2023/06/07 07:21:59;;;;;;;21.40;12.40;;;;;;;10.64;100.00;101183.50;4991909;28;20492;-85
2023/06/07 07:24:24;;;;;;;19.50;11.68;;;;;;;10.83;100.00;101183.81;4994750;28;20029;-85
2023/06/07 07:26:51;;;;;;;20.73;12.88;;;;;;;10.88;100.00;101189.53;5011374;28;20037;-85
2023/06/07 07:29:16;;;;;;;17.58;12.55;;;;;;;10.99;100.00;101186.84;5044452;28;20043;-85
2023/06/07 07:31:42;;;;;;;20.40;12.98;;;;;;;11.12;100.00;101180.50;4977811;28;20414;-85
2023/06/07 07:34:10;;;;;;;22.17;13.00;;;;;;;11.09;100.00;101191.34;5010866;28;20033;-86
2023/06/07 07:36:38;;;;;;;17.13;12.40;;;;;;;11.16;100.00;101181.94;5025918;28;20037;-85
2023/06/07 07:39:05;;;;;;;23.45;14.70;;;;;;;11.25;100.00;101182.97;4995226;28;20029;-85
2023/06/07 07:41:32;;;;;;;23.13;14.00;;;;;;;11.58;100.00;101190.81;4997122;28;20041;-85
2023/06/07 07:43:58;;;;;;;20.55;13.60;;;;;;;11.73;100.00;101184.19;5010154;28;20559;-84
2023/06/07 07:46:23;;;;;;;20.55;13.20;;;;;;;11.72;100.00;101179.00;5010872;28;20036;-87
2023/06/07 07:48:49;;;;;;;17.52;13.05;;;;;;;11.71;100.00;101178.16;5028566;28;20124;-86
2023/06/07 07:51:15;;;;;;;19.08;13.77;;;;;;;11.60;100.00;101180.91;5005761;28;20091;-87
2023/06/07 07:53:45;;;;;;;17.95;13.52;;;;;;;11.62;100.00;101178.97;4985489;28;20045;-86
2023/06/07 07:56:11;;;;;;;18.75;13.60;;;;;;;11.71;100.00;101182.59;4992900;28;20038;-80
2023/06/07 07:58:37;;;;;;;22.08;15.10;;;;;;;11.72;100.00;101182.47;5016914;28;20044;-79
2023/06/07 08:01:04;;;;;;;19.40;12.88;;;;;;;11.93;100.00;101178.09;5026457;28;20037;-85
2023/06/07 08:03:30;;;;;;;18.55;13.70;;;;;;;12.07;100.00;101177.69;5010395;28;20033;-86
2023/06/07 08:05:56;;;;;;;17.13;13.50;;;;;;;12.15;100.00;101190.31;5026902;28;20475;-85
2023/06/07 08:08:22;;;;;;;18.63;14.60;;;;;;;12.06;100.00;101183.13;4994008;28;20108;-86
2023/06/07 08:10:48;;;;;;;23.67;14.30;;;;;;;11.99;100.00;101183.69;5043167;28;20030;-87
2023/06/07 08:13:14;;;;;;;18.55;13.65;;;;;;;11.93;100.00;101180.75;4995928;28;20116;-85
2023/06/07 08:15:40;;;;;;;22.13;15.93;;;;;;;11.93;100.00;101178.09;5009988;28;20038;-87
2023/06/07 08:18:06;;;;;;;20.17;15.48;;;;;;;11.87;100.00;101190.91;4987302;28;20034;-86
2023/06/07 08:20:32;;;;;;;22.42;15.40;;;;;;;12.00;100.00;101189.81;5029397;28;20048;-86
2023/06/07 08:22:58;;;;;;;17.33;13.18;;;;;;;12.14;100.00;101189.47;5012785;28;20443;-87
2023/06/07 08:25:24;;;;;;;21.25;14.43;;;;;;;12.20;100.00;101181.97;5044784;28;20044;-86
2023/06/07 08:27:50;;;;;;;17.08;14.40;;;;;;;12.24;100.00;101188.66;5027703;28;20038;-85
2023/06/07 08:30:16;;;;;;;20.77;14.80;;;;;;;12.34;100.00;101188.69;5010207;28;20147;-84
2023/06/07 08:32:45;;;;;;;23.73;14.60;;;;;;;12.53;100.00;101193.16;5010738;28;20037;-85
2023/06/07 08:35:11;;;;;;;18.25;14.43;;;;;;;12.65;100.00;101185.91;5028076;28;20490;-86
2023/06/07 08:37:38;;;;;;;25.70;16.23;;;;;;;12.80;100.00;101188.97;5010460;28;20040;-85
2023/06/07 08:40:08;;;;;;;22.20;15.43;;;;;;;12.90;100.00;101192.44;5011737;28;20037;-85
2023/06/07 08:42:34;;;;;;;18.73;14.30;;;;;;;13.07;100.00;101187.41;4981901;28;20113;-86
2023/06/07 08:45:01;;;;;;;23.20;15.13;;;;;;;13.20;100.00;101189.75;5013637;28;20106;-85
2023/06/07 08:47:28;;;;;;;19.27;14.07;;;;;;;13.30;100.00;101179.09;5015408;28;20052;-85
2023/06/07 08:49:56;;;;;;;21.10;14.20;;;;;;;13.37;100.00;101184.69;5014290;28;20036;-85
2023/06/07 08:52:23;;;;;;;18.27;14.18;;;;;;;13.43;100.00;101181.44;4995465;28;20049;-85
2023/06/07 08:54:50;;;;;;;17.42;13.73;;;;;;;13.51;100.00;101181.59;5026121;28;20030;-80
2023/06/07 08:57:17;;;;;;;15.90;11.85;;;;;;;13.50;100.00;101182.59;5044419;28;20053;-80
2023/06/07 08:59:45;;;;;;;18.73;14.98;;;;;;;13.52;100.00;101183.25;5010820;28;20437;-85
2023/06/07 09:02:15;;;;;;;20.83;13.68;;;;;;;13.63;100.00;101176.91;4987294;28;20116;-86
2023/06/07 09:04:42;;;;;;;20.05;13.43;;;;;;;13.71;100.00;101173.53;5041836;28;20026;-87
2023/06/07 09:07:11;;;;;;;20.08;14.80;;;;;;;13.84;100.00;101165.22;5009250;28;20033;-87
2023/06/07 09:09:40;;;;;;;18.98;13.70;;;;;;;13.86;100.00;101168.56;5026720;28;20114;-85
2023/06/07 09:12:06;;;;;;;14.57;12.27;;;;;;;13.87;100.00;101159.59;5029915;28;20727;-86
2023/06/07 09:14:32;;;;;;;21.20;14.07;;;;;;;13.91;100.00;101153.97;4974254;28;20044;-85
2023/06/07 09:16:59;;;;;;;21.88;13.25;;;;;;;13.98;100.00;101152.41;5029269;28;20037;-86
2023/06/07 09:19:33;;;;;;;18.38;13.43;;;;;;;14.05;100.00;101147.34;5012921;28;20045;-82
2023/06/07 09:22:00;;;;;;;17.42;13.35;;;;;;;14.05;100.00;101148.16;5016046;28;20052;-86
2023/06/07 09:24:28;;;;;;;20.30;12.88;;;;;;;14.16;100.00;101140.97;5026253;28;20030;-85
2023/06/07 09:26:55;;;;;;;24.08;13.93;;;;;;;14.20;100.00;101145.84;5010633;28;20029;-83
2023/06/07 09:29:22;;;;;;;18.00;13.38;;;;;;;14.20;100.00;101139.69;5011403;28;20049;-84
2023/06/07 09:31:48;;;;;;;15.48;13.15;;;;;;;14.20;100.00;101143.19;4996219;28;20045;-80
2023/06/07 09:34:32;;;;;;;19.08;14.00;;;;;;;14.24;100.00;101144.53;5007012;28;20041;-80
2023/06/07 09:36:58;;;;;;;15.52;12.23;;;;;;;14.22;100.00;101143.03;5014850;28;20048;-86
2023/06/07 09:39:26;;;;;;;15.50;11.90;;;;;;;14.14;100.00;101135.81;5023766;28;20028;-87
2023/06/07 09:41:54;;;;;;;16.35;11.48;;;;;;;14.13;100.00;101145.59;5022914;28;20045;-86
2023/06/07 09:44:27;;;;;;;16.65;12.27;;;;;;;14.22;100.00;101149.16;5017486;28;20065;-85
2023/06/07 09:46:54;;;;;;;17.15;12.32;;;;;;;14.24;100.00;101147.19;5025788;28;20448;-86
2023/06/07 09:49:26;;;;;;;17.77;12.07;;;;;;;14.33;100.00;101140.16;5028154;28;20087;-86
2023/06/07 09:51:53;;;;;;;11.00;8.88;;;;;;;14.26;100.00;101139.91;4984506;28;20033;-86
2023/06/07 09:54:36;;;;;;;10.07;7.53;;;;;;;14.38;100.00;101137.03;5011162;28;20061;-85
2023/06/07 09:57:08;;;;;;;12.65;8.35;;;;;;;14.41;100.00;101134.06;5040944;28;20092;-85
2023/06/07 09:59:36;;;;;;;13.82;9.10;;;;;;;14.44;100.00;101141.75;4976250;28;20490;-86
2023/06/07 10:02:02;;;;;;;13.15;8.52;;;;;;;14.47;100.00;101132.59;5022119;28;20827;-85
2023/06/07 10:04:27;;;;;;;19.20;10.48;;;;;;;14.59;100.00;101135.84;5007779;28;20121;-81
2023/06/07 10:06:57;;;;;;;15.10;9.60;;;;;;;14.66;100.00;101133.41;4981356;28;20090;-80
2023/06/07 10:09:26;;;;;;;16.80;9.88;;;;;;;14.65;100.00;101137.94;4990129;28;20041;-80
2023/06/07 10:11:57;;;;;;;13.98;8.88;;;;;;;14.72;100.00;101130.13;5027492;28;20033;-85
2023/06/07 10:14:29;;;;;;;12.40;8.80;;;;;;;14.83;100.00;101132.59;4994488;28;20462;-86
2023/06/07 10:17:04;;;;;;;10.25;7.80;;;;;;;14.91;100.00;101134.47;5013773;28;20917;-79
2023/06/07 10:19:48;;;;;;;10.13;8.07;;;;;;;14.99;100.00;101121.22;4977607;28;20049;-80
2023/06/07 10:22:20;;;;;;;10.80;7.10;;;;;;;15.14;100.00;101123.31;5012580;28;20051;-80
2023/06/07 10:25:08;;;;;;;10.55;8.10;;;;;;;15.16;100.00;101129.28;5037472;28;20254;-85
2023/06/07 10:27:42;;;;;;;11.70;7.45;;;;;;;15.22;100.00;101115.38;5005590;28;20038;-85
2023/06/07 10:30:14;;;;;;;10.48;7.78;;;;;;;15.26;100.00;101121.19;5010068;28;20052;-86
2023/06/07 10:32:42;;;;;;;10.05;7.70;;;;;;;15.42;100.00;101122.25;5020499;28;20107;-86
2023/06/07 10:35:10;;;;;;;12.65;7.32;;;;;;;15.36;100.00;101116.59;4978035;28;20029;-79
2023/06/07 10:37:36;;;;;;;7.32;5.72;;;;;;;15.32;100.00;101117.88;5026727;28;20029;-79
2023/06/07 10:40:09;;;;;;;12.75;7.80;;;;;;;15.29;100.00;101112.06;5028431;28;20044;-80
2023/06/07 10:42:40;;;;;;;9.60;7.18;;;;;;;15.49;100.00;101115.31;5023577;28;20048;-79
2023/06/07 10:45:14;;;;;;;11.43;7.00;;;;;;;15.52;100.00;101107.00;5022313;28;20033;-80
2023/06/07 10:47:41;;;;;;;11.43;7.22;;;;;;;15.45;100.00;101106.78;5029251;28;20029;-80
2023/06/07 10:50:08;;;;;;;11.07;7.10;;;;;;;15.51;100.00;101113.31;4987956;28;20053;-82
2023/06/07 10:52:54;;;;;;;8.88;6.93;;;;;;;15.63;100.00;101100.53;4957765;28;20041;-87
2023/06/07 10:55:27;;;;;;;12.07;7.18;;;;;;;15.69;100.00;101101.69;5009937;28;20520;-86
2023/06/07 10:57:54;;;;;;;9.40;6.32;;;;;;;15.75;100.00;101101.91;4995264;28;21119;-87
2023/06/07 11:00:26;;;;;;;9.77;7.50;;;;;;;15.82;100.00;101098.56;5028169;28;20069;-87
2023/06/07 11:03:04;;;;;;;11.52;7.40;;;;;;;15.99;100.00;101097.66;5005327;28;20069;-87
2023/06/07 11:05:52;;;;;;;8.85;6.25;;;;;;;16.14;100.00;101099.66;5034194;28;20494;-85
2023/06/07 11:08:22;;;;;;;10.27;6.25;;;;;;;16.12;100.00;101089.16;4984562;28;20037;-87
2023/06/07 11:10:47;;;;;;;10.18;6.25;;;;;;;16.16;100.00;101107.50;5043870;28;20063;-85
2023/06/07 11:13:13;;;;;;;9.52;6.35;;;;;;;16.22;100.00;101107.69;4989062;28;20578;-86